Terminal Aerodrome Forecast
Issued by NWS Louisville, KY

Home | Current Version | Previous Version | Text Only | Print | Product List | Glossary On
Versions: 1 2 3 4 5 6 7 8 9 10 11 12 13 14 15
000
FTUS43 KLMK 221741
TAFSDF
TAF
KSDF 221741Z 2218/2324 17011G20KT P6SM FEW045 SCT250
     FM230100 15009KT P6SM VCSH SCT045 BKN100
     FM230500 17007KT 6SM -SHRA SCT025 OVC045
     FM230800 17006KT 5SM -SHRA SCT008 BKN015
     FM231000 18004KT 5SM -SHRA BKN008
     FM231400 24009KT P6SM -SHRA SCT008 BKN010
     FM231900 25012KT P6SM -SHRA BKN010=

USA.gov is the U.S. government's official web portal to all federal, state and local government web resources and services.